createdAt,value
2018-02-07T00:00:09.356Z,17.50
2018-02-07T00:01:09.359Z,17.00
2018-02-07T00:02:09.366Z,18.10
2018-02-07T00:03:09.368Z,17.20
2018-02-07T00:04:09.373Z,18.00
2018-02-07T00:05:09.405Z,18.20
2018-02-07T00:06:09.393Z,18.60
2018-02-07T00:07:09.398Z,18.50
2018-02-07T00:08:09.409Z,18.10
2018-02-07T00:09:09.421Z,18.40
2018-02-07T00:10:09.429Z,17.90
2018-02-07T00:11:09.436Z,17.60
2018-02-07T00:12:09.444Z,18.00
2018-02-07T00:13:09.459Z,18.30
2018-02-07T00:14:09.464Z,18.50
2018-02-07T00:15:09.480Z,18.70
2018-02-07T00:16:09.480Z,18.40
2018-02-07T00:17:09.489Z,18.90
2018-02-07T00:18:09.493Z,18.80
2018-02-07T00:19:09.507Z,18.10
2018-02-07T00:20:09.518Z,18.20
2018-02-07T00:21:09.515Z,19.00
2018-02-07T00:22:09.526Z,19.00
2018-02-07T00:23:09.531Z,19.00
2018-02-07T00:24:09.540Z,17.90
2018-02-07T00:25:09.545Z,18.40
2018-02-07T00:26:09.556Z,19.30
2018-02-07T00:27:09.567Z,18.50
2018-02-07T00:28:09.569Z,19.40
2018-02-07T00:29:09.583Z,18.60
2018-02-07T00:30:09.591Z,19.60
2018-02-07T00:31:09.597Z,19.00
2018-02-07T00:32:09.611Z,18.70
2018-02-07T00:33:09.616Z,19.50
2018-02-07T00:34:09.626Z,18.90
2018-02-07T00:35:09.638Z,18.30
2018-02-07T00:36:09.647Z,19.50
2018-02-07T00:37:09.643Z,20.00
2018-02-07T00:38:09.651Z,19.10
2018-02-07T00:39:09.658Z,19.80
2018-02-07T00:40:09.671Z,19.50
2018-02-07T00:41:09.676Z,19.10
2018-02-07T00:42:09.683Z,19.50
2018-02-07T00:43:09.701Z,19.30
2018-02-07T00:44:09.706Z,20.00
2018-02-07T00:45:09.716Z,19.20
2018-02-07T00:46:09.728Z,18.70
2018-02-07T00:47:09.730Z,19.70
2018-02-07T00:48:09.742Z,19.80
2018-02-07T00:49:09.746Z,20.10
2018-02-07T00:50:09.757Z,19.20
2018-02-07T00:51:09.768Z,18.90
2018-02-07T00:52:09.775Z,19.90
2018-02-07T00:53:09.791Z,20.40
2018-02-07T00:54:09.783Z,19.70
2018-02-07T00:55:09.793Z,21.10
2018-02-07T00:56:09.804Z,20.60
2018-02-07T00:57:09.803Z,20.60
2018-02-07T00:58:09.812Z,20.90
2018-02-07T00:59:09.825Z,20.40
2018-02-07T01:00:09.847Z,21.00
2018-02-07T01:01:09.849Z,19.80
2018-02-07T01:02:09.854Z,19.40
2018-02-07T01:03:09.858Z,21.40
2018-02-07T01:04:09.869Z,21.00
2018-02-07T01:05:09.878Z,19.90
2018-02-07T01:06:09.889Z,22.20
2018-02-07T01:07:09.899Z,20.30
2018-02-07T01:08:09.904Z,20.60
2018-02-07T01:09:09.902Z,20.80
2018-02-07T01:10:09.914Z,21.30
2018-02-07T01:11:09.921Z,20.50
2018-02-07T01:12:09.934Z,19.50
2018-02-07T01:13:09.937Z,20.30
2018-02-07T01:14:09.944Z,20.90
2018-02-07T01:15:09.961Z,20.90
2018-02-07T01:16:09.964Z,21.30
2018-02-07T01:17:09.973Z,20.40
2018-02-07T01:18:09.981Z,21.80
2018-02-07T01:19:09.987Z,21.80
2018-02-07T01:20:10.006Z,21.30
2018-02-07T01:21:10.008Z,22.20
2018-02-07T01:22:10.018Z,21.00
2018-02-07T01:23:10.031Z,21.50
2018-02-07T01:24:10.032Z,21.70
2018-02-07T01:25:10.047Z,21.80
2018-02-07T01:26:10.046Z,21.40
2018-02-07T01:27:10.047Z,20.30
2018-02-07T01:28:10.061Z,21.10
2018-02-07T01:29:10.063Z,21.90
2018-02-07T01:30:10.072Z,20.70
2018-02-07T01:31:10.084Z,21.80
2018-02-07T01:32:10.094Z,23.40
2018-02-07T01:33:10.106Z,22.40
2018-02-07T01:34:10.112Z,21.90
2018-02-07T01:35:10.120Z,21.40
2018-02-07T01:36:10.128Z,21.50
2018-02-07T01:37:10.134Z,23.20
2018-02-07T01:38:10.142Z,20.60
2018-02-07T01:39:10.157Z,21.40
2018-02-07T01:40:10.177Z,21.20
2018-02-07T01:41:10.169Z,20.60
2018-02-07T01:42:10.181Z,21.50
2018-02-07T01:43:10.181Z,21.60
2018-02-07T01:44:10.190Z,22.60
2018-02-07T01:45:10.210Z,20.90
2018-02-07T01:46:10.208Z,22.30
2018-02-07T01:47:10.217Z,21.30
2018-02-07T01:48:10.228Z,24.10
2018-02-07T01:49:10.233Z,22.60
2018-02-07T01:50:10.237Z,22.60
2018-02-07T01:51:10.256Z,23.40
2018-02-07T01:52:10.257Z,21.90
2018-02-07T01:53:10.270Z,23.50
2018-02-07T01:54:10.283Z,22.90
2018-02-07T01:55:10.284Z,23.80
2018-02-07T01:56:10.296Z,23.20
2018-02-07T01:57:10.302Z,22.80
2018-02-07T01:58:10.310Z,23.80
2018-02-07T01:59:10.324Z,22.40
2018-02-07T02:00:10.319Z,22.40
2018-02-07T02:01:10.333Z,23.50
2018-02-07T02:02:10.335Z,22.60
2018-02-07T02:03:10.358Z,23.90
2018-02-07T02:04:10.358Z,22.60
2018-02-07T02:05:10.361Z,23.90
2018-02-07T02:06:10.373Z,23.10
2018-02-07T02:07:10.384Z,23.00
2018-02-07T02:08:10.384Z,23.40
2018-02-07T02:09:10.398Z,23.40
2018-02-07T02:10:10.406Z,24.30
2018-02-07T02:11:10.412Z,24.80
2018-02-07T02:12:10.430Z,24.60
2018-02-07T02:13:10.433Z,25.20
2018-02-07T02:14:10.437Z,23.30
2018-02-07T02:15:10.450Z,24.00
2018-02-07T02:16:10.451Z,24.50
2018-02-07T02:17:10.459Z,23.80
2018-02-07T02:18:10.468Z,24.40
2018-02-07T02:19:10.472Z,23.90
2018-02-07T02:20:10.489Z,24.40
2018-02-07T02:21:10.491Z,24.90
2018-02-07T02:22:10.503Z,25.10
2018-02-07T02:23:10.509Z,25.50
2018-02-07T02:24:10.516Z,24.20
2018-02-07T02:25:10.530Z,24.40
2018-02-07T02:26:10.540Z,25.10
2018-02-07T02:27:10.542Z,24.30
2018-02-07T02:28:10.558Z,24.50
2018-02-07T02:29:10.568Z,25.40
2018-02-07T02:30:10.569Z,24.80
2018-02-07T02:31:10.582Z,24.60
2018-02-07T02:32:10.576Z,25.50
2018-02-07T02:33:10.587Z,25.10
2018-02-07T02:34:10.594Z,25.40
2018-02-07T02:35:10.605Z,24.80
2018-02-07T02:36:10.615Z,24.90
2018-02-07T02:37:10.620Z,24.70
2018-02-07T02:38:10.630Z,25.90
2018-02-07T02:39:10.642Z,24.50
2018-02-07T02:40:10.662Z,24.40
2018-02-07T02:41:10.658Z,24.40
2018-02-07T02:42:10.666Z,26.00
2018-02-07T02:43:10.674Z,24.90
2018-02-07T02:44:10.690Z,25.50
2018-02-07T02:45:10.690Z,24.80
2018-02-07T02:46:10.699Z,24.90
2018-02-07T02:47:10.717Z,25.80
2018-02-07T02:48:10.721Z,25.50
2018-02-07T02:49:10.721Z,25.60
2018-02-07T02:50:10.725Z,24.90
2018-02-07T02:51:10.734Z,24.50
2018-02-07T02:52:10.748Z,25.40
2018-02-07T02:53:10.751Z,24.80
2018-02-07T02:54:10.765Z,26.20
2018-02-07T02:55:10.773Z,25.90
2018-02-07T02:56:10.780Z,26.10
2018-02-07T02:57:10.791Z,26.40
2018-02-07T02:58:10.803Z,25.80
2018-02-07T02:59:10.811Z,24.70
2018-02-07T03:00:10.820Z,25.10
2018-02-07T03:01:10.822Z,25.60
2018-02-07T03:02:10.830Z,25.40
2018-02-07T03:03:10.844Z,25.90
2018-02-07T03:04:10.848Z,25.20
2018-02-07T03:05:10.860Z,26.40
2018-02-07T03:06:10.857Z,26.40
2018-02-07T03:07:10.866Z,26.40
2018-02-07T03:08:10.872Z,26.70
2018-02-07T03:09:10.877Z,26.30
2018-02-07T03:10:10.893Z,26.40
2018-02-07T03:11:10.898Z,25.70
2018-02-07T03:12:10.906Z,26.10
2018-02-07T03:13:10.923Z,26.10
2018-02-07T03:14:10.928Z,26.10
2018-02-07T03:15:10.932Z,26.70
2018-02-07T03:16:10.945Z,26.00
2018-02-07T03:17:10.951Z,26.00
2018-02-07T03:18:10.960Z,26.00
2018-02-07T03:19:10.974Z,25.50
2018-02-07T03:20:10.993Z,25.60
2018-02-07T03:21:10.988Z,25.40
2018-02-07T03:22:11.000Z,26.60
2018-02-07T03:23:11.002Z,26.10
2018-02-07T03:24:11.021Z,26.50
2018-02-07T03:25:11.023Z,26.80
2018-02-07T03:26:11.022Z,26.10
2018-02-07T03:27:11.031Z,24.80
2018-02-07T03:28:11.038Z,26.20
2018-02-07T03:29:11.046Z,27.40
2018-02-07T03:30:11.057Z,26.00
2018-02-07T03:31:11.061Z,27.80
2018-02-07T03:32:11.078Z,25.80
2018-02-07T03:33:11.077Z,25.20
2018-02-07T03:34:11.086Z,25.70
2018-02-07T03:35:11.104Z,26.00
2018-02-07T03:36:11.111Z,26.30
2018-02-07T03:37:11.119Z,27.00
2018-02-07T03:38:11.129Z,26.30
2018-02-07T03:39:11.134Z,25.40
2018-02-07T03:40:11.145Z,26.50
2018-02-07T03:41:11.152Z,26.40
2018-02-07T03:42:11.161Z,26.60
2018-02-07T03:43:11.177Z,26.90
2018-02-07T03:44:11.168Z,26.20
2018-02-07T03:45:11.185Z,26.60
2018-02-07T03:46:11.191Z,26.00
2018-02-07T03:47:11.225Z,25.90
2018-02-07T03:48:11.201Z,26.70
2018-02-07T03:49:11.214Z,26.00
2018-02-07T03:50:11.222Z,26.30
2018-02-07T03:51:11.228Z,25.90
2018-02-07T03:52:11.245Z,26.20
2018-02-07T03:53:11.243Z,25.70
2018-02-07T03:54:11.257Z,26.50
2018-02-07T03:55:11.269Z,25.50
2018-02-07T03:56:11.274Z,25.80
2018-02-07T03:57:11.294Z,25.50
2018-02-07T03:58:11.295Z,26.70
2018-02-07T03:59:11.301Z,26.30
2018-02-07T04:00:11.309Z,26.10
2018-02-07T04:01:11.315Z,25.90
2018-02-07T04:02:11.322Z,26.30
2018-02-07T04:03:11.341Z,26.60
2018-02-07T04:04:11.330Z,26.60
2018-02-07T04:05:11.343Z,26.40
2018-02-07T04:06:11.356Z,25.20
2018-02-07T04:07:11.356Z,25.50
2018-02-07T04:08:11.371Z,26.00
2018-02-07T04:09:11.379Z,27.30
2018-02-07T04:10:11.384Z,25.60
2018-02-07T04:11:11.400Z,26.90
2018-02-07T04:12:11.400Z,26.10
2018-02-07T04:13:11.416Z,27.10
2018-02-07T04:14:11.422Z,25.90
2018-02-07T04:15:11.438Z,26.80
2018-02-07T04:16:11.443Z,26.40
2018-02-07T04:17:11.448Z,25.00
2018-02-07T04:18:11.457Z,25.20
2018-02-07T04:19:11.481Z,26.20
2018-02-07T04:20:11.477Z,25.50
2018-02-07T04:21:11.486Z,27.00
2018-02-07T04:22:11.488Z,26.40
2018-02-07T04:23:11.488Z,27.10
2018-02-07T04:24:11.499Z,26.70
2018-02-07T04:25:11.510Z,26.20
2018-02-07T04:26:11.516Z,26.50
2018-02-07T04:27:11.531Z,26.50
2018-02-07T04:28:11.532Z,25.90
2018-02-07T04:29:11.546Z,26.20
2018-02-07T04:30:11.558Z,26.10
2018-02-07T04:31:11.560Z,27.00
2018-02-07T04:32:11.573Z,25.70
2018-02-07T04:33:11.581Z,25.80
2018-02-07T04:34:11.587Z,26.30
2018-02-07T04:35:11.595Z,26.40
2018-02-07T04:36:11.603Z,26.10
2018-02-07T04:37:11.620Z,26.30
2018-02-07T04:38:11.626Z,26.80
2018-02-07T04:39:11.628Z,26.40
2018-02-07T04:40:11.646Z,26.90
2018-02-07T04:41:11.638Z,26.40
2018-02-07T04:42:11.649Z,26.40
2018-02-07T04:43:11.656Z,26.10
2018-02-07T04:44:11.659Z,26.70
2018-02-07T04:45:11.673Z,25.10
2018-02-07T04:46:11.682Z,24.90
2018-02-07T04:47:11.686Z,27.50
2018-02-07T04:48:11.702Z,26.00
2018-02-07T04:49:11.706Z,26.60
2018-02-07T04:50:11.722Z,26.20
2018-02-07T04:51:11.730Z,26.70
2018-02-07T04:52:11.730Z,26.40
2018-02-07T04:53:11.752Z,28.30
2018-02-07T04:54:11.756Z,26.90
2018-02-07T04:55:11.757Z,28.20
2018-02-07T04:56:11.776Z,26.40
2018-02-07T04:57:11.776Z,26.90
2018-02-07T04:58:11.788Z,26.50
2018-02-07T04:59:11.804Z,27.10
2018-02-07T05:00:11.791Z,27.40
2018-02-07T05:01:11.809Z,26.50
2018-02-07T05:02:11.811Z,27.70
2018-02-07T05:03:11.822Z,27.50
2018-02-07T05:04:11.843Z,27.80
2018-02-07T05:05:11.837Z,27.20
2018-02-07T05:06:11.845Z,26.50
2018-02-07T05:07:11.858Z,27.10
2018-02-07T05:08:11.867Z,26.70
2018-02-07T05:09:11.876Z,27.50
2018-02-07T05:10:11.887Z,27.30
2018-02-07T05:11:11.889Z,26.70
2018-02-07T05:12:11.904Z,27.60
2018-02-07T05:13:11.904Z,27.40
2018-02-07T05:14:11.926Z,27.10
2018-02-07T05:15:11.932Z,28.40
2018-02-07T05:16:11.936Z,28.70
2018-02-07T05:17:11.936Z,28.70
2018-02-07T05:18:11.943Z,28.60
2018-02-07T05:19:11.950Z,27.50
2018-02-07T05:20:11.964Z,29.00
2018-02-07T05:21:11.964Z,27.00
2018-02-07T05:22:11.973Z,27.40
2018-02-07T05:23:11.984Z,28.50
2018-02-07T05:24:11.991Z,29.20
2018-02-07T05:25:12.003Z,27.50
2018-02-07T05:26:12.013Z,28.90
2018-02-07T05:27:12.018Z,28.00
2018-02-07T05:28:12.032Z,28.10
2018-02-07T05:29:12.037Z,28.70
2018-02-07T05:30:12.046Z,28.50
2018-02-07T05:31:12.059Z,27.00
2018-02-07T05:32:12.059Z,27.70
2018-02-07T05:33:12.074Z,28.00
2018-02-07T05:34:12.070Z,27.50
2018-02-07T05:35:12.075Z,28.20
2018-02-07T05:36:12.091Z,27.80
2018-02-07T05:37:12.099Z,28.20
2018-02-07T05:38:12.105Z,28.50
2018-02-07T05:39:12.117Z,27.50
2018-02-07T05:40:12.123Z,28.30
2018-02-07T05:41:12.140Z,29.40
2018-02-07T05:42:12.143Z,27.40
2018-02-07T05:43:12.153Z,28.80
2018-02-07T05:44:12.159Z,28.10
2018-02-07T05:45:12.165Z,29.30
2018-02-07T05:46:12.174Z,28.40
2018-02-07T05:47:12.175Z,28.90
2018-02-07T05:48:12.182Z,28.00
2018-02-07T05:49:12.198Z,28.80
2018-02-07T05:50:12.203Z,27.90
2018-02-07T05:51:12.207Z,28.90
2018-02-07T05:52:12.218Z,28.10
2018-02-07T05:53:12.224Z,28.90
2018-02-07T05:54:12.232Z,29.70
2018-02-07T05:55:12.257Z,29.40
2018-02-07T05:56:12.254Z,28.30
2018-02-07T05:57:12.262Z,28.60
2018-02-07T05:58:12.274Z,28.00
2018-02-07T05:59:12.297Z,27.80
2018-02-07T06:00:12.288Z,28.00
2018-02-07T06:01:12.305Z,27.90
2018-02-07T06:02:12.311Z,27.80
2018-02-07T06:03:12.314Z,29.20
2018-02-07T06:04:12.314Z,30.20
2018-02-07T06:05:12.319Z,29.10
2018-02-07T06:06:12.370Z,29.50
2018-02-07T06:07:12.345Z,29.30
2018-02-07T06:08:12.346Z,30.30
2018-02-07T06:09:12.363Z,28.70
2018-02-07T06:10:12.367Z,28.50
2018-02-07T06:11:12.373Z,30.10
2018-02-07T06:12:12.387Z,29.10
2018-02-07T06:13:12.391Z,27.20
2018-02-07T06:14:12.401Z,29.60
2018-02-07T06:15:12.412Z,29.50
2018-02-07T06:16:12.415Z,30.00
2018-02-07T06:17:12.432Z,28.90
2018-02-07T06:18:12.444Z,30.30
2018-02-07T06:19:12.446Z,29.90
2018-02-07T06:20:12.459Z,28.80
2018-02-07T06:21:12.465Z,29.20
2018-02-07T06:22:12.473Z,30.30
2018-02-07T06:23:12.484Z,30.30
2018-02-07T06:24:12.475Z,29.40
2018-02-07T06:25:12.491Z,29.20
2018-02-07T06:26:12.496Z,30.40
2018-02-07T06:27:12.504Z,29.50
2018-02-07T06:28:12.513Z,30.60
2018-02-07T06:29:12.523Z,30.20
2018-02-07T06:30:12.530Z,30.70
2018-02-07T06:31:12.540Z,29.40
2018-02-07T06:32:12.548Z,29.70
2018-02-07T06:33:12.561Z,29.30
2018-02-07T06:34:12.568Z,30.50
2018-02-07T06:35:12.574Z,29.90
2018-02-07T06:36:12.588Z,29.90
2018-02-07T06:37:12.589Z,30.30
2018-02-07T06:38:12.603Z,29.70
2018-02-07T06:39:12.617Z,29.90
2018-02-07T06:40:12.619Z,28.50
2018-02-07T06:41:12.632Z,30.30
2018-02-07T06:42:12.629Z,29.80
2018-02-07T06:43:12.634Z,28.50
2018-02-07T06:44:12.661Z,30.40
2018-02-07T06:45:12.651Z,29.50
2018-02-07T06:46:12.659Z,28.80
2018-02-07T06:47:12.679Z,29.50
2018-02-07T06:48:12.676Z,29.90
2018-02-07T06:49:12.689Z,31.00
2018-02-07T06:50:12.708Z,30.30
2018-02-07T06:51:12.702Z,31.00
2018-02-07T06:52:12.720Z,30.10
2018-02-07T06:53:12.722Z,30.90
2018-02-07T06:54:12.743Z,29.70
2018-02-07T06:55:12.745Z,30.30
2018-02-07T06:56:12.746Z,31.20
2018-02-07T06:57:12.759Z,30.10
2018-02-07T06:58:12.767Z,29.30
2018-02-07T06:59:12.772Z,29.30
2018-02-07T07:00:12.787Z,29.40
2018-02-07T07:01:12.781Z,28.00
2018-02-07T07:02:12.802Z,30.40
2018-02-07T07:03:12.801Z,29.00
2018-02-07T07:04:12.809Z,29.10
2018-02-07T07:05:12.817Z,29.60
2018-02-07T07:06:12.834Z,30.20
2018-02-07T07:07:12.830Z,29.10
2018-02-07T07:08:12.847Z,30.00
2018-02-07T07:09:12.852Z,31.30
2018-02-07T07:10:12.860Z,30.10
2018-02-07T07:11:12.872Z,29.80
2018-02-07T07:12:12.876Z,30.70
2018-02-07T07:13:12.894Z,30.40
2018-02-07T07:14:12.901Z,30.70
2018-02-07T07:15:12.903Z,31.50
2018-02-07T07:16:12.921Z,28.90
2018-02-07T07:17:12.925Z,29.80
2018-02-07T07:18:12.930Z,30.10
2018-02-07T07:19:12.943Z,31.90
2018-02-07T07:20:12.949Z,32.50
2018-02-07T07:21:12.950Z,31.70
2018-02-07T07:22:12.958Z,30.90
2018-02-07T07:23:12.963Z,32.40
2018-02-07T07:24:12.975Z,31.30
2018-02-07T07:25:12.979Z,29.40
2018-02-07T07:26:12.988Z,31.20
2018-02-07T07:27:13.000Z,30.10
2018-02-07T07:28:13.020Z,31.60
2018-02-07T07:29:13.022Z,31.60
2018-02-07T07:30:13.032Z,30.50
2018-02-07T07:31:13.035Z,30.80
2018-02-07T07:32:13.052Z,31.00
2018-02-07T07:33:13.056Z,31.20
2018-02-07T07:34:13.074Z,32.50
2018-02-07T07:35:13.079Z,30.20
2018-02-07T07:36:13.076Z,31.50
2018-02-07T07:37:13.089Z,32.00
2018-02-07T07:38:13.113Z,31.70
2018-02-07T07:39:13.103Z,32.00
2018-02-07T07:40:13.120Z,31.00
2018-02-07T07:41:13.127Z,32.00
2018-02-07T07:42:13.124Z,32.50
2018-02-07T07:43:13.133Z,31.40
2018-02-07T07:44:13.135Z,32.60
2018-02-07T07:45:13.151Z,32.00
2018-02-07T07:46:13.157Z,31.70
2018-02-07T07:47:13.163Z,31.30
2018-02-07T07:48:13.176Z,33.10
2018-02-07T07:49:13.183Z,30.10
2018-02-07T07:50:13.195Z,31.50
2018-02-07T07:51:13.201Z,32.00
2018-02-07T07:52:13.209Z,32.50
2018-02-07T07:53:13.225Z,31.60
2018-02-07T07:54:13.231Z,31.40
2018-02-07T07:55:13.235Z,32.10
2018-02-07T07:56:13.258Z,31.90
2018-02-07T07:57:13.254Z,31.70
2018-02-07T07:58:13.263Z,31.50
2018-02-07T07:59:13.273Z,32.80
2018-02-07T08:00:13.282Z,33.30
2018-02-07T08:01:13.294Z,34.40
2018-02-07T08:02:13.304Z,33.30
2018-02-07T08:03:13.309Z,33.20
2018-02-07T08:04:13.350Z,33.30
2018-02-07T08:05:13.330Z,33.60
2018-02-07T08:06:13.336Z,32.80
2018-02-07T08:07:13.346Z,32.90
2018-02-07T08:08:13.357Z,34.00
2018-02-07T08:09:13.362Z,34.40
2018-02-07T08:10:13.375Z,34.30
2018-02-07T08:11:13.379Z,32.60
2018-02-07T08:12:13.395Z,33.60
2018-02-07T08:13:13.395Z,33.20
2018-02-07T08:14:13.404Z,33.30
2018-02-07T08:15:13.418Z,35.60
2018-02-07T08:16:13.424Z,34.10
2018-02-07T08:17:13.439Z,35.30
2018-02-07T08:18:13.442Z,34.30
2018-02-07T08:19:13.446Z,34.20
2018-02-07T08:20:13.459Z,34.60
2018-02-07T08:21:13.470Z,33.30
2018-02-07T08:22:13.473Z,34.30
2018-02-07T08:23:13.485Z,34.10
2018-02-07T08:24:13.497Z,34.30
2018-02-07T08:25:13.506Z,34.80
2018-02-07T08:26:13.519Z,36.00
2018-02-07T08:27:13.520Z,35.90
2018-02-07T08:28:13.534Z,34.70
2018-02-07T08:29:13.541Z,34.90
2018-02-07T08:30:13.544Z,34.20
2018-02-07T08:31:13.563Z,34.40
2018-02-07T08:32:13.565Z,35.00
2018-02-07T08:33:13.579Z,35.30
2018-02-07T08:34:13.588Z,36.60
2018-02-07T08:35:13.604Z,36.30
2018-02-07T08:36:13.628Z,36.40
2018-02-07T08:37:13.620Z,36.00
2018-02-07T08:38:13.629Z,36.80
2018-02-07T08:39:13.646Z,36.50
2018-02-07T08:40:13.657Z,39.00
2018-02-07T08:41:13.659Z,38.00
2018-02-07T08:42:13.668Z,38.90
2018-02-07T08:43:13.672Z,38.30
2018-02-07T08:44:13.689Z,38.00
2018-02-07T08:45:13.697Z,38.40
2018-02-07T08:46:13.702Z,37.50
2018-02-07T08:47:13.717Z,36.70
2018-02-07T08:48:13.717Z,37.40
2018-02-07T08:49:13.730Z,39.60
2018-02-07T08:50:13.752Z,38.40
2018-02-07T08:51:13.748Z,39.10
2018-02-07T08:52:13.756Z,38.60
2018-02-07T08:53:13.762Z,38.90
2018-02-07T08:54:13.770Z,37.90
2018-02-07T08:55:13.804Z,39.40
2018-02-07T08:56:13.803Z,37.70
2018-02-07T08:57:13.815Z,37.10
2018-02-07T08:58:13.826Z,38.10
2018-02-07T08:59:13.841Z,36.50
2018-02-07T09:00:13.841Z,39.10
2018-02-07T09:01:13.849Z,38.00
2018-02-07T09:02:13.854Z,38.50
2018-02-07T09:03:13.870Z,37.20
2018-02-07T09:04:13.873Z,37.00
2018-02-07T09:05:13.887Z,36.80
2018-02-07T09:06:13.896Z,36.40
2018-02-07T09:07:13.900Z,38.10
2018-02-07T09:08:13.912Z,37.10
2018-02-07T09:09:13.921Z,37.90
2018-02-07T09:10:13.938Z,39.90
2018-02-07T09:11:13.950Z,37.20
2018-02-07T09:12:13.956Z,38.90
2018-02-07T09:13:13.971Z,38.10
2018-02-07T09:14:13.980Z,38.70
2018-02-07T09:15:13.984Z,37.10
2018-02-07T09:16:13.994Z,37.90
2018-02-07T09:17:14.000Z,36.60
2018-02-07T09:18:14.008Z,37.60
2018-02-07T09:19:14.022Z,38.00
2018-02-07T09:20:14.042Z,38.10
2018-02-07T09:21:14.042Z,38.10
2018-02-07T09:22:14.054Z,37.50
2018-02-07T09:23:14.059Z,39.60
2018-02-07T09:24:14.068Z,38.40
2018-02-07T09:25:14.077Z,39.30
2018-02-07T09:26:14.084Z,39.10
2018-02-07T09:27:14.108Z,39.80
2018-02-07T09:28:14.111Z,38.90
2018-02-07T09:29:14.124Z,39.40
2018-02-07T09:30:14.137Z,38.60
2018-02-07T09:31:14.141Z,39.40
2018-02-07T09:32:14.154Z,41.60
2018-02-07T09:33:14.159Z,40.60
2018-02-07T09:34:14.168Z,40.20
2018-02-07T09:35:14.178Z,41.20
2018-02-07T09:36:14.181Z,38.80
2018-02-07T09:37:14.194Z,40.30
2018-02-07T09:38:14.203Z,41.30
2018-02-07T09:39:14.208Z,39.60
2018-02-07T09:40:14.257Z,41.10
2018-02-07T09:41:14.225Z,39.00
2018-02-07T09:42:14.234Z,40.50
2018-02-07T09:43:14.248Z,40.50
2018-02-07T09:44:14.266Z,39.60
2018-02-07T09:45:14.269Z,42.40
2018-02-07T09:46:14.277Z,41.40
2018-02-07T09:47:14.295Z,42.40
2018-02-07T09:48:14.308Z,41.20
2018-02-07T09:49:14.309Z,41.50
2018-02-07T09:50:14.321Z,42.10
2018-02-07T09:51:14.332Z,39.90
2018-02-07T09:52:14.341Z,41.80
2018-02-07T09:53:14.351Z,42.40
2018-02-07T09:54:14.362Z,43.00
2018-02-07T09:55:14.365Z,42.00
2018-02-07T09:56:14.378Z,40.20
2018-02-07T09:57:14.385Z,44.00
2018-02-07T09:58:14.392Z,42.10
2018-02-07T09:59:14.404Z,40.60
2018-02-07T10:00:14.407Z,42.60
2018-02-07T10:01:14.419Z,42.20
2018-02-07T10:02:14.428Z,39.20
2018-02-07T10:03:14.435Z,41.20
2018-02-07T10:04:14.448Z,41.10
2018-02-07T10:05:14.453Z,40.90
2018-02-07T10:06:14.466Z,42.10
2018-02-07T10:07:14.480Z,40.60
2018-02-07T10:08:14.487Z,41.00
2018-02-07T10:09:14.494Z,44.00
2018-02-07T10:10:14.504Z,42.60
2018-02-07T10:11:14.504Z,41.10
2018-02-07T10:12:14.516Z,42.20
2018-02-07T10:13:14.528Z,43.20
2018-02-07T10:14:14.536Z,42.60
2018-02-07T10:15:14.547Z,41.70
2018-02-07T10:16:14.561Z,42.40
2018-02-07T10:17:14.572Z,42.30
2018-02-07T10:18:14.571Z,41.60
2018-02-07T10:19:14.605Z,41.00
2018-02-07T10:20:14.597Z,42.10
2018-02-07T10:21:14.610Z,43.20
2018-02-07T10:22:14.619Z,43.70
2018-02-07T10:23:14.630Z,42.20
2018-02-07T10:24:14.639Z,41.70
2018-02-07T10:25:14.645Z,42.00
2018-02-07T10:26:14.704Z,42.10
2018-02-07T10:27:14.665Z,41.60
2018-02-07T10:28:14.675Z,41.20
2018-02-07T10:29:14.700Z,42.40
2018-02-07T10:30:14.693Z,42.80
2018-02-07T10:31:14.700Z,42.90
2018-02-07T10:32:14.708Z,42.00
2018-02-07T10:33:14.732Z,44.10
2018-02-07T10:34:14.722Z,43.10
2018-02-07T10:35:14.735Z,42.70
2018-02-07T10:36:14.745Z,42.80
2018-02-07T10:37:14.754Z,43.10
2018-02-07T10:38:14.763Z,43.70
2018-02-07T10:39:14.769Z,43.80
2018-02-07T10:40:14.801Z,41.90
2018-02-07T10:41:14.797Z,42.90
2018-02-07T10:42:14.810Z,43.20
2018-02-07T10:43:14.818Z,43.50
2018-02-07T10:44:14.825Z,42.40
2018-02-07T10:45:14.836Z,41.40
2018-02-07T10:46:14.845Z,42.70
2018-02-07T10:47:14.854Z,40.90
2018-02-07T10:48:14.865Z,41.70
2018-02-07T10:49:14.870Z,42.40
2018-02-07T10:50:14.880Z,42.90
2018-02-07T10:51:14.892Z,40.70
2018-02-07T10:52:14.913Z,41.60
2018-02-07T10:53:14.923Z,40.50
2018-02-07T10:54:14.928Z,41.30
2018-02-07T10:55:14.934Z,39.80
2018-02-07T10:56:14.948Z,40.90
2018-02-07T10:57:14.957Z,42.10
2018-02-07T10:58:14.965Z,41.60
2018-02-07T10:59:14.975Z,39.60
2018-02-07T11:00:14.981Z,40.20
2018-02-07T11:01:15.010Z,40.00
2018-02-07T11:02:15.004Z,40.00
2018-02-07T11:03:15.011Z,39.90
2018-02-07T11:04:15.031Z,41.10
2018-02-07T11:05:15.035Z,40.60
2018-02-07T11:06:15.050Z,41.50
2018-02-07T11:07:15.058Z,42.30
2018-02-07T11:08:15.065Z,41.00
2018-02-07T11:09:15.076Z,40.60
2018-02-07T11:10:15.087Z,39.40
2018-02-07T11:11:15.094Z,41.20
2018-02-07T11:12:15.114Z,41.50
2018-02-07T11:13:15.119Z,39.60
2018-02-07T11:14:15.127Z,39.30
2018-02-07T11:15:15.140Z,39.10
2018-02-07T11:16:15.186Z,39.40
2018-02-07T11:17:15.163Z,40.20
2018-02-07T11:18:15.170Z,40.50
2018-02-07T11:19:15.191Z,41.30
2018-02-07T11:20:15.203Z,41.60
2018-02-07T11:21:15.202Z,39.40
2018-02-07T11:22:15.211Z,41.20
2018-02-07T11:23:15.227Z,40.90
2018-02-07T11:24:15.233Z,40.80
2018-02-07T11:25:15.246Z,38.70
2018-02-07T11:26:15.273Z,39.80
2018-02-07T11:27:15.273Z,39.70
2018-02-07T11:28:15.282Z,39.10
2018-02-07T11:29:15.287Z,40.50
2018-02-07T11:30:15.296Z,37.40
2018-02-07T11:31:15.311Z,39.30
2018-02-07T11:32:15.318Z,40.40
2018-02-07T11:33:15.342Z,41.80
2018-02-07T11:34:15.348Z,43.70
2018-02-07T11:35:15.351Z,41.20
2018-02-07T11:36:15.380Z,44.40
2018-02-07T11:37:15.372Z,42.50
2018-02-07T11:38:15.382Z,43.00
2018-02-07T11:39:15.398Z,40.00
2018-02-07T11:40:15.408Z,38.30
2018-02-07T11:41:15.421Z,41.90
2018-02-07T11:42:15.431Z,43.20
2018-02-07T11:43:15.439Z,41.30
2018-02-07T11:44:15.453Z,41.70
2018-02-07T11:45:15.468Z,44.00
2018-02-07T11:46:15.465Z,44.20
2018-02-07T11:47:15.489Z,42.40
2018-02-07T11:48:15.496Z,41.10
2018-02-07T11:49:15.509Z,41.20
2018-02-07T11:50:15.517Z,41.70
2018-02-07T11:51:15.523Z,43.80
2018-02-07T11:52:15.533Z,43.40
2018-02-07T11:53:15.554Z,43.10
2018-02-07T11:54:15.563Z,43.60
2018-02-07T11:55:15.571Z,42.70
2018-02-07T11:56:15.578Z,42.10
2018-02-07T11:57:15.591Z,40.80
2018-02-07T11:58:15.600Z,39.40
2018-02-07T11:59:15.608Z,39.90
2018-02-07T12:00:15.628Z,42.10
2018-02-07T12:01:15.634Z,40.30
2018-02-07T12:02:15.646Z,41.90
2018-02-07T12:03:15.655Z,41.50
2018-02-07T12:04:15.665Z,41.90
2018-02-07T12:05:15.686Z,39.60
2018-02-07T12:06:15.698Z,42.60
2018-02-07T12:07:15.700Z,43.70
2018-02-07T12:08:15.718Z,41.50
2018-02-07T12:09:15.719Z,42.00
2018-02-07T12:10:15.729Z,37.70
2018-02-07T12:11:15.754Z,35.60
2018-02-07T12:12:15.755Z,36.50
2018-02-07T12:13:15.769Z,36.50
2018-02-07T12:14:15.778Z,36.60
2018-02-07T12:15:15.784Z,38.00
2018-02-07T12:16:15.803Z,35.80
2018-02-07T12:17:15.815Z,39.00
2018-02-07T12:18:15.828Z,40.10
2018-02-07T12:19:15.836Z,37.50
2018-02-07T12:20:15.846Z,38.90
2018-02-07T12:21:15.853Z,38.80
2018-02-07T12:22:15.875Z,38.80
2018-02-07T12:23:15.885Z,36.60
2018-02-07T12:24:15.887Z,37.80
2018-02-07T12:25:15.905Z,38.00
2018-02-07T12:26:15.925Z,37.60
2018-02-07T12:27:15.929Z,37.90
2018-02-07T12:28:15.946Z,36.30
2018-02-07T12:29:15.950Z,36.60
2018-02-07T12:30:15.961Z,37.10
2018-02-07T12:31:15.969Z,35.80
2018-02-07T12:32:15.993Z,36.90
2018-02-07T12:33:15.999Z,36.80
2018-02-07T12:34:16.008Z,35.80
2018-02-07T12:35:16.012Z,37.50
2018-02-07T12:36:16.030Z,36.40
2018-02-07T12:37:16.040Z,34.70
2018-02-07T12:38:16.059Z,36.20
2018-02-07T12:39:16.062Z,36.50
2018-02-07T12:40:16.070Z,37.10
2018-02-07T12:41:16.095Z,38.60
2018-02-07T12:42:16.104Z,35.80
2018-02-07T12:43:16.109Z,35.10
2018-02-07T12:44:16.124Z,36.00
2018-02-07T12:45:16.124Z,36.40
2018-02-07T12:46:16.145Z,32.70
2018-02-07T12:47:16.159Z,33.30
2018-02-07T12:48:16.165Z,34.80
2018-02-07T12:49:16.183Z,34.10
2018-02-07T12:50:16.187Z,36.50
2018-02-07T12:51:16.207Z,34.70
2018-02-07T12:52:16.221Z,36.60